Time;durP1;ratioP1;P1;durP2;ratioP2;P2;SDS_P1;SDS_P2;PMS_P1;PMS_P2;Temp;Humidity;BMP_temperature;BMP_pressure;BME280_temperature;BME280_humidity;BME280_pressure;Samples;Min_cycle;Max_cycle;Signal;HPM_P1;HPM_P2
2023/01/31 00:02:06;;;;;;;8.23;3.85;;;11.20;99.90;;;;;;10488947;28;20483;-24
2023/01/31 00:07:08;;;;;;;13.18;3.15;;;10.60;99.90;;;;;;10485740;28;20131;-23
2023/01/31 00:12:11;;;;;;;16.05;4.07;;;10.20;99.90;;;;;;10482671;28;20524;-24
2023/01/31 00:17:13;;;;;;;15.30;2.40;;;10.10;99.90;;;;;;10478099;28;20470;-24
2023/01/31 00:22:15;;;;;;;11.95;3.30;;;9.40;99.90;;;;;;10490630;28;20073;-24
2023/01/31 00:27:18;;;;;;;16.13;2.92;;;9.50;99.90;;;;;;10480880;28;20408;-25
2023/01/31 00:32:20;;;;;;;10.60;3.13;;;10.40;99.90;;;;;;10490941;28;20064;-23
2023/01/31 00:37:22;;;;;;;21.15;3.15;;;9.80;99.90;;;;;;10482457;28;20084;-23
2023/01/31 00:42:25;;;;;;;11.35;3.65;;;8.80;99.90;;;;;;10498210;28;20127;-25
2023/01/31 00:47:27;;;;;;;;;;;9.10;99.90;;;;;;10479496;28;20540;-24
2023/01/31 00:52:29;;;;;;;23.20;3.60;;;9.30;99.90;;;;;;10498170;28;20015;-24
2023/01/31 00:57:32;;;;;;;21.65;3.50;;;8.90;99.90;;;;;;10493228;28;20550;-26
2023/01/31 01:02:34;;;;;;;26.58;4.15;;;9.00;99.90;;;;;;10480030;28;20059;-24
2023/01/31 01:07:36;;;;;;;27.17;4.63;;;8.30;99.90;;;;;;10480267;28;20041;-24
2023/01/31 01:12:39;;;;;;;21.83;4.27;;;8.00;99.90;;;;;;10475292;28;20110;-25
2023/01/31 01:17:41;;;;;;;27.70;4.65;;;7.30;99.90;;;;;;10486079;28;20091;-28
2023/01/31 01:22:43;;;;;;;9.13;3.17;;;8.40;99.90;;;;;;10490228;28;20178;-24
2023/01/31 01:27:46;;;;;;;22.70;4.00;;;9.00;99.90;;;;;;10482131;28;20497;-24
2023/01/31 01:32:48;;;;;;;;;;;7.60;99.90;;;;;;10478313;28;20063;-25
2023/01/31 01:37:49;;;;;;;22.63;3.75;;;7.60;99.90;;;;;;10485135;28;20012;-24
2023/01/31 01:42:53;;;;;;;26.67;4.47;;;7.80;99.90;;;;;;10469353;28;20059;-24
2023/01/31 01:47:58;;;;;;;25.50;5.43;;;7.80;99.90;;;;;;10477873;28;20692;-25
2023/01/31 01:53:04;;;;;;;29.15;5.22;;;8.00;99.90;;;;;;10491308;28;20052;-25
2023/01/31 01:58:11;;;;;;;13.35;4.55;;;7.40;99.90;;;;;;10466442;28;20134;-25
2023/01/31 02:03:14;;;;;;;28.42;4.55;;;7.50;99.90;;;;;;10481377;28;20111;-23
2023/01/31 02:08:19;;;;;;;12.73;3.08;;;7.40;99.90;;;;;;10473174;28;20123;-24
2023/01/31 02:13:23;;;;;;;27.45;4.88;;;7.50;99.90;;;;;;10476721;28;20469;-26
2023/01/31 02:18:26;;;;;;;37.25;6.78;;;7.60;99.90;;;;;;10472734;28;20554;-24
2023/01/31 02:24:02;;;;;;;40.38;5.93;;;8.20;99.90;;;;;;10487185;28;20064;-23
2023/01/31 02:29:34;;;;;;;20.70;5.68;;;7.40;99.90;;;;;;10467185;28;20131;-24
2023/01/31 02:34:50;;;;;;;24.75;5.72;;;8.10;99.90;;;;;;10473209;28;20050;-24
2023/01/31 02:40:01;;;;;;;34.40;5.68;;;7.40;99.90;;;;;;10461855;28;20048;-25
2023/01/31 02:45:10;;;;;;;17.92;4.35;;;7.60;99.90;;;;;;10482002;28;20131;-27
2023/01/31 02:50:23;;;;;;;26.58;5.47;;;7.80;99.90;;;;;;10482208;28;20056;-25
2023/01/31 03:00:50;;;;;;;16.55;3.60;;;7.40;99.90;;;;;;10480130;28;20839;-24
2023/01/31 03:06:25;;;;;;;32.95;4.70;;;7.80;99.90;;;;;;10484193;28;20551;-25
2023/01/31 03:11:40;;;;;;;22.23;4.45;;;7.20;99.90;;;;;;10465525;28;20537;-25
2023/01/31 03:22:15;;;;;;;24.95;4.50;;;7.30;99.90;;;;;;10476313;28;20088;-23
2023/01/31 03:27:19;;;;;;;25.38;4.40;;;7.00;99.90;;;;;;10464487;28;20044;-25
2023/01/31 03:32:25;;;;;;;22.13;4.15;;;6.90;99.90;;;;;;10498800;28;20057;-24
2023/01/31 03:37:37;;;;;;;25.85;4.00;;;7.50;99.90;;;;;;10484490;28;20051;-22
2023/01/31 03:42:44;;;;;;;23.50;3.50;;;7.50;99.90;;;;;;10488243;28;20037;-24
2023/01/31 03:47:49;;;;;;;18.52;3.13;;;7.10;99.90;;;;;;10486564;28;20131;-25
2023/01/31 03:52:57;;;;;;;26.67;3.50;;;7.40;99.90;;;;;;10465538;28;20545;-24
2023/01/31 03:58:03;;;;;;;20.23;4.88;;;7.10;99.90;;;;;;10495945;28;20070;-24
2023/01/31 04:03:10;;;;;;;24.38;3.17;;;7.10;99.90;;;;;;10492905;28;20544;-24
2023/01/31 04:08:12;;;;;;;16.58;2.83;;;7.30;99.90;;;;;;10485033;28;20041;-25
2023/01/31 04:13:15;;;;;;;18.88;3.13;;;7.30;99.90;;;;;;10477534;28;20080;-24
2023/01/31 04:18:17;;;;;;;;;;;7.30;99.90;;;;;;10488912;28;20053;-24
2023/01/31 04:23:19;;;;;;;22.48;2.95;;;7.20;99.90;;;;;;10486404;28;20014;-25
2023/01/31 04:28:22;;;;;;;9.70;2.65;;;7.30;99.90;;;;;;10498185;28;20083;-25
2023/01/31 04:33:24;;;;;;;16.30;2.90;;;8.00;99.90;;;;;;10481106;28;20076;-24
2023/01/31 04:38:26;;;;;;;34.85;2.72;;;8.30;99.90;;;;;;10482283;28;20053;-25
2023/01/31 04:43:29;;;;;;;23.00;3.33;;;7.50;99.90;;;;;;10473456;28;20045;-25
2023/01/31 04:48:31;;;;;;;;;;;7.30;99.90;;;;;;10487560;28;20045;-23
2023/01/31 04:53:32;;;;;;;20.55;3.25;;;7.50;99.90;;;;;;10477519;28;19927;-24
2023/01/31 04:58:36;;;;;;;23.52;3.38;;;7.70;99.90;;;;;;10482726;28;20463;-27
2023/01/31 05:03:37;;;;;;;;;;;8.00;99.90;;;;;;10479409;28;20060;-24
2023/01/31 05:08:39;;;;;;;12.05;3.28;;;7.90;99.90;;;;;;10482744;28;19924;-24
2023/01/31 05:13:44;;;;;;;10.93;2.88;;;7.70;99.90;;;;;;10483608;28;20421;-27
2023/01/31 05:18:46;;;;;;;20.63;3.38;;;7.70;99.90;;;;;;10477458;28;20049;-24
2023/01/31 05:23:48;;;;;;;18.15;3.38;;;7.90;99.90;;;;;;10479561;28;20447;-23
2023/01/31 05:28:51;;;;;;;26.52;3.92;;;7.40;99.90;;;;;;10468510;28;20503;-24
2023/01/31 05:33:52;;;;;;;;;;;7.60;99.90;;;;;;10468572;28;20055;-24
2023/01/31 05:38:54;;;;;;;17.23;2.92;;;7.50;99.90;;;;;;10468336;28;19970;-24
2023/01/31 05:43:57;;;;;;;23.52;3.90;;;7.60;99.90;;;;;;10468349;28;20053;-25
2023/01/31 05:48:59;;;;;;;;;;;7.50;99.90;;;;;;10467729;28;20059;-23
2023/01/31 05:54:01;;;;;;;19.25;2.90;;;7.50;99.90;;;;;;10462002;28;20385;-24
2023/01/31 05:59:04;;;;;;;27.48;3.33;;;7.50;99.90;;;;;;10472681;28;20151;-24
2023/01/31 06:04:06;;;;;;;;;;;7.30;99.90;;;;;;10498241;28;20087;-26
2023/01/31 06:09:08;;;;;;;23.83;5.38;;;7.40;99.90;;;;;;10488171;28;19948;-26
2023/01/31 06:14:11;;;;;;;22.17;4.18;;;7.40;99.90;;;;;;10486888;28;20416;-22
2023/01/31 06:19:13;;;;;;;15.30;2.33;;;7.30;99.90;;;;;;10479693;28;20061;-24
2023/01/31 06:24:15;;;;;;;17.05;3.22;;;7.60;99.90;;;;;;10479234;28;20041;-23
2023/01/31 06:29:18;;;;;;;19.80;2.30;;;7.40;99.90;;;;;;10478681;28;20045;-24
2023/01/31 06:34:20;;;;;;;;;;;7.20;99.90;;;;;;10484270;28;20098;-24
2023/01/31 06:39:21;;;;;;;;;;;6.90;99.90;;;;;;10476246;28;19964;-25
2023/01/31 06:44:25;;;;;;;;;;;7.30;99.90;;;;;;10481871;28;20431;-25
2023/01/31 06:49:26;;;;;;;;;;;7.40;99.90;;;;;;10484112;28;20047;-28
2023/01/31 06:54:28;;;;;;;;;;;7.40;99.90;;;;;;10473236;28;19985;-26
2023/01/31 06:59:31;;;;;;;;;;;7.40;99.90;;;;;;10474446;28;19928;-24
2023/01/31 07:04:33;;;;;;;;;;;7.30;99.90;;;;;;10471246;28;19958;-22
2023/01/31 07:09:34;;;;;;;;;;;7.50;99.90;;;;;;10485964;28;19970;-25
2023/01/31 13:08:24;;;;;;;27.45;4.90;;;10.20;99.90;;;;;;10497097;27;20113;-26
2023/01/31 13:13:30;;;;;;;22.23;3.22;;;9.90;99.90;;;;;;10505860;28;20076;-26
2023/01/31 13:18:34;;;;;;;17.38;3.58;;;10.20;99.90;;;;;;10519589;28;20077;-27
2023/01/31 13:23:40;;;;;;;24.70;3.20;;;10.30;99.90;;;;;;10506427;28;20140;-26
2023/01/31 13:28:48;;;;;;;28.73;3.78;;;10.20;99.90;;;;;;10498633;28;20105;-25
2023/01/31 13:33:56;;;;;;;20.13;3.08;;;10.00;99.90;;;;;;10495255;28;20044;-26
2023/01/31 13:39:07;;;;;;;26.85;3.08;;;10.40;99.90;;;;;;10500463;28;20048;-25
2023/01/31 13:44:13;;;;;;;22.27;3.47;;;10.60;99.90;;;;;;10490295;28;20089;-26
2023/01/31 13:49:21;;;;;;;17.05;3.58;;;10.10;99.90;;;;;;10511120;28;20694;-25
2023/01/31 13:54:28;;;;;;;14.88;3.38;;;9.90;99.90;;;;;;10499026;28;20044;-26
2023/01/31 13:59:32;;;;;;;20.95;4.45;;;9.70;99.90;;;;;;10513681;28;20059;-25
2023/01/31 14:04:36;;;;;;;29.35;3.50;;;9.70;99.90;;;;;;10514560;28;20095;-25
2023/01/31 14:09:42;;;;;;;21.02;3.70;;;9.80;99.90;;;;;;10515054;28;20083;-26
2023/01/31 14:14:45;;;;;;;16.45;2.70;;;10.00;99.90;;;;;;10519054;28;20533;-27
2023/01/31 14:20:02;;;;;;;;;;;9.70;99.90;;;;;;10484269;28;20091;-25
2023/01/31 14:25:12;;;;;;;17.30;2.38;;;9.50;99.90;;;;;;10497744;28;19959;-28
2023/01/31 14:30:32;;;;;;;16.02;2.40;;;9.80;99.90;;;;;;10478869;28;20040;-24
2023/01/31 14:35:48;;;;;;;16.33;3.58;;;9.80;99.90;;;;;;10470597;28;20123;-28
2023/01/31 14:41:02;;;;;;;24.50;3.90;;;9.70;99.90;;;;;;10478865;28;20560;-27
2023/01/31 14:46:29;;;;;;;20.88;2.60;;;9.40;99.90;;;;;;10486880;28;20898;-25
2023/01/31 14:51:44;;;;;;;20.35;2.88;;;9.50;99.90;;;;;;10491514;28;20045;-26
2023/01/31 14:57:08;;;;;;;19.15;3.17;;;10.00;99.90;;;;;;10495402;28;20080;-26
2023/01/31 15:02:34;;;;;;;21.17;3.17;;;10.00;99.90;;;;;;10485652;28;20048;-26
2023/01/31 15:07:36;;;;;;;23.05;3.40;;;9.50;99.90;;;;;;10471011;28;20112;-25
2023/01/31 15:12:58;;;;;;;16.33;3.10;;;9.30;99.90;;;;;;10468908;28;20607;-26
2023/01/31 15:18:04;;;;;;;26.60;3.53;;;9.30;99.90;;;;;;10469977;28;20071;-26
2023/01/31 15:23:13;;;;;;;18.25;2.85;;;9.50;99.90;;;;;;10471343;28;20049;-26
2023/01/31 15:28:19;;;;;;;23.38;3.75;;;9.40;99.90;;;;;;10471518;28;20048;-26
2023/01/31 15:33:28;;;;;;;33.80;4.25;;;9.60;99.90;;;;;;10479854;28;20102;-25
2023/01/31 15:38:34;;;;;;;22.60;3.58;;;9.60;99.90;;;;;;10475113;28;20135;-25
2023/01/31 15:43:38;;;;;;;25.85;4.07;;;9.40;99.90;;;;;;10482079;28;20153;-26
2023/01/31 15:48:42;;;;;;;24.80;3.67;;;9.40;99.90;;;;;;10482246;28;20059;-25
2023/01/31 15:53:44;;;;;;;12.02;2.83;;;9.60;99.90;;;;;;10487891;28;20037;-27
2023/01/31 15:58:49;;;;;;;25.58;2.85;;;9.70;99.90;;;;;;10481242;28;20473;-28
2023/01/31 16:03:54;;;;;;;18.85;4.13;;;9.80;99.90;;;;;;10480664;28;20469;-26
2023/01/31 16:08:59;;;;;;;25.52;4.40;;;10.00;99.90;;;;;;10468421;28;20544;-26
2023/01/31 16:14:06;;;;;;;19.27;3.15;;;9.80;99.90;;;;;;10475401;28;20163;-25
2023/01/31 16:19:13;;;;;;;12.43;2.53;;;10.00;99.90;;;;;;10469570;28;20576;-25
2023/01/31 16:24:17;;;;;;;17.05;2.63;;;10.60;99.90;;;;;;10475133;28;20131;-26
2023/01/31 16:29:23;;;;;;;19.48;2.50;;;9.60;99.90;;;;;;10475835;28;20424;-26
2023/01/31 16:34:28;;;;;;;27.00;4.38;;;9.50;99.90;;;;;;10482074;28;20162;-25
2023/01/31 16:39:37;;;;;;;11.55;2.13;;;9.20;99.90;;;;;;10465222;28;20427;-26
2023/01/31 16:44:44;;;;;;;12.40;2.55;;;10.30;99.90;;;;;;10486708;28;20132;-27
2023/01/31 16:49:48;;;;;;;11.77;2.53;;;9.50;99.90;;;;;;10482481;28;20105;-29
2023/01/31 16:54:51;;;;;;;9.13;2.67;;;9.60;99.90;;;;;;10475999;28;20138;-27
2023/01/31 16:59:54;;;;;;;22.60;3.50;;;9.00;99.90;;;;;;10481286;28;20040;-26
2023/01/31 17:04:58;;;;;;;26.92;3.28;;;9.10;99.90;;;;;;10488404;28;20065;-29
2023/01/31 17:10:03;;;;;;;25.70;3.42;;;8.40;99.90;;;;;;10477863;28;20045;-26
2023/01/31 17:15:13;;;;;;;14.55;2.75;;;9.10;99.90;;;;;;10478239;28;20068;-28
2023/01/31 17:20:17;;;;;;;13.00;2.90;;;8.90;99.90;;;;;;10480063;28;20045;-26
2023/01/31 17:25:23;;;;;;;18.02;2.70;;;8.80;99.90;;;;;;10478288;28;20536;-27
2023/01/31 17:30:29;;;;;;;19.60;2.95;;;8.60;99.90;;;;;;10479985;28;20194;-25
2023/01/31 17:35:35;;;;;;;29.40;4.68;;;8.00;99.90;;;;;;10474151;28;20044;-26
2023/01/31 17:40:39;;;;;;;26.95;3.33;;;7.70;99.90;;;;;;10484963;28;20053;-25
2023/01/31 17:45:42;;;;;;;15.65;2.70;;;7.50;99.90;;;;;;10470739;28;20109;-26
2023/01/31 17:50:45;;;;;;;19.92;3.30;;;7.40;99.90;;;;;;10483205;28;20056;-26
2023/01/31 17:55:47;;;;;;;25.55;3.67;;;7.70;99.90;;;;;;10489631;28;20131;-26
2023/01/31 18:00:50;;;;;;;19.38;4.43;;;8.50;99.90;;;;;;10483114;28;20048;-27
2023/01/31 18:05:53;;;;;;;23.67;3.95;;;9.60;99.90;;;;;;10487125;28;20057;-26
2023/01/31 18:10:55;;;;;;;34.95;4.32;;;9.80;99.90;;;;;;10496103;28;20072;-30
2023/01/31 18:16:04;;;;;;;19.73;4.28;;;7.80;99.90;;;;;;10488212;28;20140;-27
2023/01/31 18:21:08;;;;;;;30.25;4.95;;;7.70;99.90;;;;;;10474386;28;20080;-26
2023/01/31 18:26:12;;;;;;;41.58;5.38;;;7.70;99.90;;;;;;10480570;28;20084;-26
2023/01/31 18:31:17;;;;;;;26.92;4.35;;;7.60;99.90;;;;;;10480284;28;20072;-26
2023/01/31 18:36:20;;;;;;;21.58;4.40;;;7.90;99.90;;;;;;10489580;28;20051;-26
2023/01/31 18:41:22;;;;;;;26.38;3.80;;;7.80;99.90;;;;;;10480463;28;20098;-28
2023/01/31 18:46:26;;;;;;;35.08;4.13;;;7.80;99.90;;;;;;10472356;28;20538;-25
2023/01/31 18:51:28;;;;;;;23.55;3.95;;;7.70;99.90;;;;;;10480731;28;20136;-27
2023/01/31 18:56:30;;;;;;;24.17;4.05;;;7.80;99.90;;;;;;10485986;28;20453;-26
2023/01/31 19:01:34;;;;;;;26.02;4.47;;;8.00;99.90;;;;;;10486693;28;20083;-25
2023/01/31 19:06:36;;;;;;;;;;;7.90;99.90;;;;;;10478080;28;20529;-25
2023/01/31 19:11:40;;;;;;;22.03;3.37;;;7.90;99.90;;;;;;10466178;28;20553;-24
2023/01/31 19:16:44;;;;;;;28.17;3.97;;;7.60;99.90;;;;;;10477263;28;20053;-26
2023/01/31 19:21:46;;;;;;;33.58;4.85;;;7.80;99.90;;;;;;10484561;28;20051;-24
2023/01/31 19:26:48;;;;;;;33.65;4.78;;;7.70;99.90;;;;;;10479549;28;20145;-25
2023/01/31 19:31:51;;;;;;;30.23;6.13;;;7.70;99.90;;;;;;10489120;28;20109;-28
2023/01/31 19:36:53;;;;;;;9.35;2.40;;;8.50;99.90;;;;;;10476403;28;20071;-25
2023/01/31 19:41:55;;;;;;;22.45;3.75;;;9.90;99.90;;;;;;10485168;28;20044;-26
2023/01/31 19:46:58;;;;;;;32.83;4.50;;;9.50;99.90;;;;;;10478440;28;20079;-25
2023/01/31 19:52:00;;;;;;;11.20;3.15;;;9.90;99.90;;;;;;10480112;28;20049;-26
2023/01/31 19:57:02;;;;;;;31.13;4.90;;;10.00;99.90;;;;;;10485803;28;20072;-24
2023/01/31 20:02:05;;;;;;;31.05;4.65;;;9.30;99.90;;;;;;10481591;28;20512;-25
2023/01/31 20:07:08;;;;;;;31.88;6.57;;;8.70;99.90;;;;;;10483532;28;20053;-25
2023/01/31 20:12:11;;;;;;;41.33;5.30;;;8.80;99.90;;;;;;10474503;28;20440;-27
2023/01/31 20:17:14;;;;;;;18.33;3.50;;;8.40;99.90;;;;;;10474395;28;20668;-25
2023/01/31 20:22:20;;;;;;;25.02;4.07;;;9.00;99.90;;;;;;10481739;28;20144;-25
2023/01/31 20:27:22;;;;;;;22.20;4.15;;;8.60;99.90;;;;;;10483743;28;20040;-26
2023/01/31 20:32:26;;;;;;;22.10;4.10;;;8.60;99.90;;;;;;10481313;28;20063;-24
2023/01/31 20:37:28;;;;;;;24.17;4.25;;;8.50;99.90;;;;;;10474853;28;20529;-25
2023/01/31 20:42:31;;;;;;;23.93;3.77;;;9.00;99.90;;;;;;10471717;28;20861;-25
2023/01/31 20:47:35;;;;;;;19.20;2.95;;;8.60;99.90;;;;;;10468421;28;20130;-25
2023/01/31 20:52:37;;;;;;;14.40;2.95;;;8.40;99.90;;;;;;10476292;28;20056;-24
2023/01/31 20:57:38;;;;;;;21.60;3.83;;;8.40;99.90;;;;;;10467768;28;20048;-25
2023/01/31 21:02:42;;;;;;;27.02;3.92;;;8.70;99.90;;;;;;10461479;28;20052;-24
2023/01/31 21:07:45;;;;;;;24.35;3.80;;;8.40;99.90;;;;;;10475303;28;20106;-26
2023/01/31 21:12:47;;;;;;;22.77;3.72;;;8.10;99.90;;;;;;10481479;28;20416;-25
2023/01/31 21:17:50;;;;;;;17.95;2.83;;;8.20;99.90;;;;;;10467027;28;20048;-25
2023/01/31 21:22:51;;;;;;;;;;;8.40;99.90;;;;;;10475057;28;20044;-26
2023/01/31 21:27:53;;;;;;;29.67;4.18;;;8.30;99.90;;;;;;10483659;28;19932;-25
2023/01/31 21:32:57;;;;;;;25.40;4.13;;;8.20;99.90;;;;;;10484788;28;20132;-27
2023/01/31 21:37:59;;;;;;;23.55;3.67;;;8.90;99.90;;;;;;10483437;28;20135;-25
2023/01/31 21:43:01;;;;;;;23.45;3.22;;;8.60;99.90;;;;;;10482253;28;20137;-27
2023/01/31 21:53:35;;;;;;;32.65;4.43;;;8.50;99.90;;;;;;10383586;28;20045;-25
2023/01/31 21:58:38;;;;;;;20.30;2.90;;;8.20;99.90;;;;;;10482598;28;20382;-25
2023/01/31 22:03:42;;;;;;;31.45;3.65;;;8.30;99.90;;;;;;10470747;28;20135;-24
2023/01/31 22:08:45;;;;;;;26.20;3.40;;;8.40;99.90;;;;;;10486985;28;20057;-25
2023/01/31 22:13:48;;;;;;;23.42;3.67;;;8.80;99.90;;;;;;10489919;28;20056;-25
2023/01/31 22:18:52;;;;;;;19.60;3.72;;;8.30;99.90;;;;;;10487630;28;20051;-26
2023/01/31 22:23:56;;;;;;;29.00;3.30;;;8.50;99.90;;;;;;10487886;28;20076;-25
2023/01/31 22:28:59;;;;;;;16.00;3.58;;;8.30;99.90;;;;;;10479750;28;20456;-25
2023/01/31 22:34:05;;;;;;;18.80;2.92;;;8.70;99.90;;;;;;10498806;28;20047;-26
2023/01/31 22:39:07;;;;;;;31.42;4.30;;;8.40;99.90;;;;;;10487170;28;20098;-26
2023/01/31 22:44:09;;;;;;;27.38;5.70;;;8.00;99.90;;;;;;10479616;28;20143;-24
2023/01/31 22:49:12;;;;;;;23.10;3.85;;;7.80;99.90;;;;;;10472098;28;20506;-27
2023/01/31 22:54:17;;;;;;;26.83;4.13;;;8.30;99.90;;;;;;10488035;28;20072;-26
2023/01/31 22:59:19;;;;;;;26.23;3.28;;;8.00;99.90;;;;;;10475232;28;20072;-25
2023/01/31 23:04:22;;;;;;;19.17;3.05;;;8.20;99.90;;;;;;10471102;28;20090;-26
2023/01/31 23:09:24;;;;;;;30.05;3.70;;;7.80;99.90;;;;;;10492951;28;20630;-25
2023/01/31 23:14:26;;;;;;;28.98;3.58;;;8.40;99.90;;;;;;10484579;28;20076;-26
2023/01/31 23:19:29;;;;;;;18.10;2.72;;;8.70;99.90;;;;;;10477174;28;20048;-28
2023/01/31 23:24:31;;;;;;;36.20;4.38;;;9.10;99.90;;;;;;10494197;28;20095;-25
2023/01/31 23:29:33;;;;;;;28.30;3.80;;;8.30;99.90;;;;;;10488717;28;20052;-25
2023/01/31 23:34:36;;;;;;;20.80;3.10;;;7.90;99.90;;;;;;10492223;28;20056;-24
2023/01/31 23:39:38;;;;;;;27.20;3.30;;;8.10;99.90;;;;;;10472006;28;20103;-25
2023/01/31 23:44:40;;;;;;;32.90;4.82;;;7.90;99.90;;;;;;10469211;28;20140;-25
2023/01/31 23:49:43;;;;;;;22.20;4.47;;;7.90;99.90;;;;;;10486127;28;20094;-26
2023/01/31 23:54:45;;;;;;;;;;;8.50;99.90;;;;;;10479299;28;20443;-26
2023/01/31 23:59:47;;;;;;;38.05;3.95;;;8.20;99.90;;;;;;10488154;28;19928;-25
